createdAt,value
2022-11-04T00:00:28.698Z,9.5
2022-11-04T00:01:24.632Z,9.85714
2022-11-04T00:02:24.770Z,9.35714
2022-11-04T00:03:24.696Z,8.85714
2022-11-04T00:04:24.733Z,10
2022-11-04T00:05:24.784Z,9.64286
2022-11-04T00:06:24.806Z,8.71429
2022-11-04T00:07:24.842Z,10.1429
2022-11-04T00:08:24.879Z,9.5
2022-11-04T00:09:24.900Z,9.71429
2022-11-04T00:10:24.952Z,8.5
2022-11-04T00:11:24.990Z,10.7143
2022-11-04T00:12:25.013Z,9.85714
2022-11-04T00:13:25.040Z,9.42857
2022-11-04T00:14:25.091Z,9.5
2022-11-04T00:15:25.098Z,9.71429
2022-11-04T00:16:25.129Z,9.21429
2022-11-04T00:17:25.162Z,9.71429
2022-11-04T00:18:25.203Z,9.5
2022-11-04T00:19:25.254Z,9.42857
2022-11-04T00:20:25.257Z,10
2022-11-04T00:21:25.292Z,11.6429
2022-11-04T00:22:25.349Z,9.85714
2022-11-04T00:23:25.355Z,9.71429
2022-11-04T00:24:25.390Z,10
2022-11-04T00:25:25.425Z,9.5
2022-11-04T00:26:25.482Z,9.85714
2022-11-04T00:27:25.493Z,9.71429
2022-11-04T00:28:25.530Z,9.64286
2022-11-04T00:29:25.582Z,9.64286
2022-11-04T00:30:25.586Z,10.7143
2022-11-04T00:31:25.642Z,10.5
2022-11-04T00:32:25.642Z,10.2143
2022-11-04T00:33:25.673Z,10
2022-11-04T00:34:25.691Z,11.1429
2022-11-04T00:35:25.723Z,10.5
2022-11-04T00:36:25.769Z,9.64286
2022-11-04T00:37:25.774Z,10
2022-11-04T00:38:25.807Z,10.4286
2022-11-04T00:39:25.844Z,9.92857
2022-11-04T00:40:25.893Z,10.6429
2022-11-04T00:41:26.437Z,9.85714
2022-11-04T00:42:25.937Z,9.92857
2022-11-04T00:43:25.974Z,10
2022-11-04T00:44:25.999Z,9.5
2022-11-04T00:45:26.047Z,10.3571
2022-11-04T00:46:26.058Z,10.6429
2022-11-04T00:47:26.088Z,10.9286
2022-11-04T00:48:26.115Z,9.85714
2022-11-04T00:49:26.138Z,9.64286
2022-11-04T00:50:26.165Z,9.35714
2022-11-04T00:51:26.200Z,10.4286
2022-11-04T00:52:26.224Z,9.5
2022-11-04T00:53:26.261Z,9.92857
2022-11-04T00:54:26.288Z,9.5
2022-11-04T00:55:26.332Z,9.35714
2022-11-04T00:56:26.362Z,12
2022-11-04T00:57:26.384Z,10.4286
2022-11-04T00:58:26.417Z,10.1429
2022-11-04T00:59:26.470Z,10.7143
2022-11-04T01:00:26.479Z,9.71429
2022-11-04T01:01:26.695Z,13
2022-11-04T01:02:26.611Z,11.7143
2022-11-04T01:03:26.575Z,10.3571
2022-11-04T01:04:26.626Z,11
2022-11-04T01:05:26.639Z,10.4286
2022-11-04T01:06:26.680Z,9.85714
2022-11-04T01:07:26.746Z,10.7143
2022-11-04T01:08:26.738Z,11.1429
2022-11-04T01:09:26.772Z,10.9286
2022-11-04T01:10:26.805Z,11.3571
2022-11-04T01:11:26.824Z,11.8571
2022-11-04T01:12:26.874Z,10.8571
2022-11-04T01:13:26.887Z,10.1429
2022-11-04T01:14:26.909Z,11.1429
2022-11-04T01:15:26.964Z,11.4286
2022-11-04T01:17:27.011Z,11.5
2022-11-04T01:18:27.056Z,12.3571
2022-11-04T01:19:27.073Z,11.2143
2022-11-04T01:20:27.126Z,11.4286
2022-11-04T01:21:27.158Z,11.4286
2022-11-04T01:22:27.175Z,11.7143
2022-11-04T01:23:27.207Z,11.2143
2022-11-04T01:24:27.240Z,11.6429
2022-11-04T01:25:27.271Z,11.5
2022-11-04T01:26:27.332Z,11.7143
2022-11-04T01:27:27.343Z,11.1429
2022-11-04T01:28:27.382Z,11.6429
2022-11-04T01:29:27.420Z,10.9286
2022-11-04T01:30:27.438Z,11.1429
2022-11-04T01:31:27.491Z,10.8571
2022-11-04T01:32:27.506Z,10.7143
2022-11-04T01:33:27.536Z,11.2143
2022-11-04T01:34:27.569Z,11.4286
2022-11-04T01:35:27.592Z,11.2143
2022-11-04T01:36:27.649Z,10.8571
2022-11-04T01:37:27.663Z,11.2143
2022-11-04T01:38:27.717Z,11.2143
2022-11-04T01:39:27.730Z,10.9286
2022-11-04T01:40:27.775Z,11.7143
2022-11-04T01:41:27.787Z,10.6429
2022-11-04T01:42:27.813Z,10.9286
2022-11-04T01:43:27.858Z,11.3571
2022-11-04T01:44:27.888Z,11
2022-11-04T01:45:27.904Z,11.5
2022-11-04T01:46:27.988Z,9.92857
2022-11-04T01:47:27.989Z,11.8571
2022-11-04T01:48:28.007Z,11
2022-11-04T01:49:28.057Z,11.4286
2022-11-04T01:50:28.070Z,11.6429
2022-11-04T01:51:28.098Z,12.6429
2022-11-04T01:52:28.133Z,11.1429
2022-11-04T01:53:28.166Z,12.2143
2022-11-04T01:54:28.204Z,11
2022-11-04T01:55:28.228Z,11.5
2022-11-04T01:56:28.265Z,12
2022-11-04T01:57:28.300Z,11.8571
2022-11-04T01:58:28.329Z,11.1429
2022-11-04T01:59:28.368Z,11.9286
2022-11-04T02:00:28.397Z,11.2143
2022-11-04T02:01:28.539Z,11.3571
2022-11-04T02:02:28.588Z,12.9286
2022-11-04T02:03:28.496Z,11.3571
2022-11-04T02:04:28.517Z,11.7143
2022-11-04T02:05:28.545Z,11.5
2022-11-04T02:06:28.600Z,11.9286
2022-11-04T02:07:28.616Z,10.8571
2022-11-04T02:08:28.649Z,11.6429
2022-11-04T02:09:28.680Z,11.8571
2022-11-04T02:10:28.735Z,11.9286
2022-11-04T02:11:28.763Z,12.3571
2022-11-04T02:12:28.805Z,10.9286
2022-11-04T02:13:28.809Z,11.4286
2022-11-04T02:14:28.843Z,11
2022-11-04T02:15:28.868Z,11.1429
2022-11-04T02:16:28.910Z,10.9286
2022-11-04T02:17:28.971Z,11.2143
2022-11-04T02:18:28.973Z,11.1429
2022-11-04T02:19:29.007Z,10.6429
2022-11-04T02:20:29.043Z,11.2143
2022-11-04T02:21:29.070Z,13.5
2022-11-04T02:22:29.114Z,10.7143
2022-11-04T02:23:29.130Z,10.6429
2022-11-04T02:24:29.160Z,10.7143
2022-11-04T02:25:29.197Z,10.6429
2022-11-04T02:26:29.218Z,10.7143
2022-11-04T02:27:29.273Z,10.9286
2022-11-04T02:28:29.283Z,11
2022-11-04T02:29:29.306Z,11.2143
2022-11-04T02:30:29.335Z,11.4286
2022-11-04T02:31:29.365Z,11.2143
2022-11-04T02:32:29.421Z,11.6429
2022-11-04T02:33:29.447Z,11.6429
2022-11-04T02:34:29.473Z,11.7143
2022-11-04T02:35:29.526Z,10.1429
2022-11-04T02:36:29.531Z,12.8571
2022-11-04T02:37:29.564Z,10.7143
2022-11-04T02:38:29.599Z,10.6429
2022-11-04T02:39:29.628Z,10.7143
2022-11-04T02:40:29.682Z,10.9286
2022-11-04T02:41:29.689Z,11.3571
2022-11-04T02:42:29.726Z,11.3571
2022-11-04T02:43:29.772Z,11
2022-11-04T02:44:29.787Z,10.7143
2022-11-04T02:45:29.829Z,10.8571
2022-11-04T02:46:29.856Z,10.6429
2022-11-04T02:47:29.900Z,11.3571
2022-11-04T02:48:29.951Z,11.5
2022-11-04T02:49:29.951Z,11.2143
2022-11-04T02:50:29.973Z,11.5
2022-11-04T02:51:30.007Z,12.8571
2022-11-04T02:52:30.043Z,12
2022-11-04T02:53:30.094Z,11.1429
2022-11-04T02:54:30.105Z,12.2143
2022-11-04T02:55:30.140Z,13.8571
2022-11-04T02:56:30.169Z,11.7143
2022-11-04T02:57:30.232Z,12.2143
2022-11-04T02:58:30.250Z,11.2143
2022-11-04T02:59:30.281Z,11.8571
2022-11-04T03:00:30.321Z,11.8571
2022-11-04T03:01:30.464Z,11.6429
2022-11-04T03:02:30.537Z,12.1429
2022-11-04T03:03:30.433Z,11.7143
2022-11-04T03:04:30.463Z,12.4286
2022-11-04T03:05:30.510Z,12.7143
2022-11-04T03:06:30.522Z,12.1429
2022-11-04T03:07:30.551Z,12.7143
2022-11-04T03:08:30.584Z,12.1429
2022-11-04T03:09:30.610Z,12.8571
2022-11-04T03:10:30.658Z,12.1429
2022-11-04T03:11:30.664Z,12.3571
2022-11-04T03:12:30.703Z,12.2143
2022-11-04T03:13:30.760Z,12
2022-11-04T03:14:30.767Z,12
2022-11-04T03:15:30.803Z,12.3571
2022-11-04T03:16:30.836Z,13.2143
2022-11-04T03:17:30.890Z,12.6429
2022-11-04T03:18:30.904Z,12.9286
2022-11-04T03:19:30.932Z,12.6429
2022-11-04T03:20:30.970Z,12.4286
2022-11-04T03:21:31.017Z,12.8571
2022-11-04T03:22:31.039Z,13.1429
2022-11-04T03:23:31.071Z,11.8571
2022-11-04T03:24:31.107Z,12
2022-11-04T03:25:31.152Z,12.5
2022-11-04T03:26:31.158Z,12.4286
2022-11-04T03:27:31.217Z,12.6429
2022-11-04T03:28:31.230Z,12.4286
2022-11-04T03:29:31.260Z,12.4286
2022-11-04T03:30:31.308Z,12.2143
2022-11-04T03:31:31.311Z,12
2022-11-04T03:32:31.368Z,11.3571
2022-11-04T03:33:31.390Z,12
2022-11-04T03:34:31.413Z,12.4286
2022-11-04T03:35:31.441Z,11.2143
2022-11-04T03:36:31.473Z,11.7143
2022-11-04T03:37:31.524Z,12.2143
2022-11-04T03:38:31.537Z,12.2143
2022-11-04T03:39:31.577Z,11.4286
2022-11-04T03:40:31.629Z,12.4286
2022-11-04T03:41:31.635Z,12
2022-11-04T03:42:31.668Z,11.8571
2022-11-04T03:43:31.702Z,12.3571
2022-11-04T03:44:31.738Z,13.5
2022-11-04T03:45:31.792Z,11.4286
2022-11-04T03:46:31.813Z,12.2143
2022-11-04T03:47:31.838Z,11.6429
2022-11-04T03:48:31.873Z,11.3571
2022-11-04T03:49:31.906Z,12.6429
2022-11-04T03:50:31.956Z,12.3571
2022-11-04T03:51:31.991Z,11.9286
2022-11-04T03:52:32.005Z,11.8571
2022-11-04T03:53:32.063Z,12.3571
2022-11-04T03:54:32.082Z,12.3571
2022-11-04T03:55:32.119Z,11.4286
2022-11-04T03:56:32.170Z,11.8571
2022-11-04T03:57:32.210Z,11.2143
2022-11-04T03:58:32.230Z,11.8571
2022-11-04T03:59:32.269Z,12.2143
2022-11-04T04:00:32.329Z,11.6429
2022-11-04T04:01:32.501Z,11.4286
2022-11-04T04:02:32.376Z,11.4286
2022-11-04T04:03:32.410Z,11.6429
2022-11-04T04:04:32.445Z,11.5
2022-11-04T04:05:32.490Z,11.5
2022-11-04T04:06:32.503Z,11.3571
2022-11-04T04:07:32.550Z,12
2022-11-04T04:08:32.565Z,11.4286
2022-11-04T04:09:32.598Z,12.1429
2022-11-04T04:10:32.632Z,11.3571
2022-11-04T04:11:32.655Z,11.9286
2022-11-04T04:12:32.711Z,11.5
2022-11-04T04:13:32.724Z,11.3571
2022-11-04T04:14:32.777Z,11.7143
2022-11-04T04:15:32.789Z,12.7143
2022-11-04T04:16:32.818Z,12.2143
2022-11-04T04:17:32.851Z,12.5
2022-11-04T04:18:32.880Z,11.6429
2022-11-04T04:19:32.942Z,11.6429
2022-11-04T04:20:32.950Z,11.5
2022-11-04T04:21:33.008Z,11.4286
2022-11-04T04:22:33.020Z,11.5
2022-11-04T04:23:33.059Z,11.5
2022-11-04T04:24:33.097Z,11.5
2022-11-04T04:25:33.135Z,12.6429
2022-11-04T04:26:33.196Z,12.1429
2022-11-04T04:27:33.214Z,11.6429
2022-11-04T04:28:33.234Z,11.6429
2022-11-04T04:29:33.278Z,12.4286
2022-11-04T04:30:33.329Z,12
2022-11-04T04:31:33.364Z,12.7143
2022-11-04T04:32:33.379Z,12
2022-11-04T04:33:33.418Z,12.7143
2022-11-04T04:34:33.454Z,12.1429
2022-11-04T04:35:33.488Z,13.3571
2022-11-04T04:36:33.518Z,12.1429
2022-11-04T04:37:33.561Z,12.8571
2022-11-04T04:38:33.599Z,12.6429
2022-11-04T04:39:33.625Z,12.2143
2022-11-04T04:40:33.655Z,12
2022-11-04T04:41:33.693Z,12.8571
2022-11-04T04:42:33.738Z,11.4286
2022-11-04T04:43:33.755Z,12.8571
2022-11-04T04:44:33.782Z,12.7143
2022-11-04T04:45:33.819Z,12.2143
2022-11-04T04:46:33.858Z,12.4286
2022-11-04T04:47:33.912Z,11.9286
2022-11-04T04:48:33.917Z,11.9286
2022-11-04T04:49:33.953Z,12.3571
2022-11-04T04:50:33.988Z,12.6429
2022-11-04T04:51:34.037Z,12
2022-11-04T04:52:34.050Z,11.1429
2022-11-04T04:53:34.087Z,12.4286
2022-11-04T04:54:34.120Z,12
2022-11-04T04:55:38.972Z,12.2143
2022-11-04T04:56:34.218Z,11.7143
2022-11-04T04:57:34.230Z,12.2143
2022-11-04T04:58:34.261Z,12.4286
2022-11-04T04:59:34.316Z,12.6429
2022-11-04T05:00:34.328Z,13
2022-11-04T05:01:34.542Z,12.5
2022-11-04T05:02:34.475Z,11.8571
2022-11-04T05:03:34.492Z,12.1429
2022-11-04T05:04:34.470Z,12.3571
2022-11-04T05:05:34.501Z,12.6429
2022-11-04T05:06:34.536Z,11.6429
2022-11-04T05:07:34.567Z,11.9286
2022-11-04T05:08:34.616Z,12.4286
2022-11-04T05:09:34.632Z,12.9286
2022-11-04T05:10:34.673Z,12.9286
2022-11-04T05:11:34.711Z,12.6429
2022-11-04T05:12:34.742Z,12.2143
2022-11-04T05:13:34.794Z,12.3571
2022-11-04T05:14:34.813Z,12.3571
2022-11-04T05:15:34.859Z,13
2022-11-04T05:16:40.395Z,12.1429
2022-11-04T05:17:34.901Z,12.9286
2022-11-04T05:18:34.931Z,14.9286
2022-11-04T05:19:34.979Z,13.1429
2022-11-04T05:20:34.988Z,12.5
2022-11-04T05:21:35.039Z,12.7143
2022-11-04T05:22:35.059Z,12
2022-11-04T05:23:35.089Z,12.7143
2022-11-04T05:24:35.123Z,13.7143
2022-11-04T05:25:35.176Z,12.5
2022-11-04T05:26:35.190Z,13.4286
2022-11-04T05:27:35.220Z,13.3571
2022-11-04T05:28:35.254Z,13.7143
2022-11-04T05:29:35.278Z,13
2022-11-04T05:30:35.330Z,14.2143
2022-11-04T05:31:35.378Z,14
2022-11-04T05:32:35.383Z,11.8571
2022-11-04T05:33:35.416Z,12.5
2022-11-04T05:34:35.452Z,13.7143
2022-11-04T05:35:35.515Z,13.6429
2022-11-04T05:36:35.536Z,13.8571
2022-11-04T05:37:35.556Z,13
2022-11-04T05:38:35.582Z,13.4286
2022-11-04T05:39:35.621Z,14.4286
2022-11-04T05:40:35.660Z,13.8571
2022-11-04T05:41:35.716Z,13.6429
2022-11-04T05:42:35.730Z,14.4286
2022-11-04T05:43:35.761Z,12.9286
2022-11-04T05:44:35.805Z,13.9286
2022-11-04T05:45:35.842Z,13.3571
2022-11-04T05:46:35.892Z,13.6429
2022-11-04T05:47:35.901Z,14
2022-11-04T05:48:40.385Z,15
2022-11-04T05:49:35.959Z,13.5
2022-11-04T05:50:36.001Z,13.8571
2022-11-04T05:51:36.033Z,14.6429
2022-11-04T05:52:36.065Z,14.5
2022-11-04T05:53:36.095Z,13.1429
2022-11-04T05:54:36.128Z,13.7143
2022-11-04T05:55:36.156Z,13.7143
2022-11-04T05:56:36.208Z,13.6429
2022-11-04T05:57:36.227Z,14.3571
2022-11-04T05:58:36.266Z,14
2022-11-04T05:59:36.292Z,13.5
2022-11-04T06:00:36.329Z,15.1429
2022-11-04T06:01:36.474Z,13.7143
2022-11-04T06:02:36.447Z,14.7143
2022-11-04T06:03:36.421Z,13.4286
2022-11-04T06:04:36.452Z,14.2143
2022-11-04T06:05:36.487Z,14.3571
2022-11-04T06:06:36.521Z,14.9286
2022-11-04T06:07:36.551Z,14
2022-11-04T06:08:38.909Z,14.6429
2022-11-04T06:09:36.617Z,14.8571
2022-11-04T06:10:36.649Z,16.1429
2022-11-04T06:11:36.687Z,14.4286
2022-11-04T06:12:36.702Z,15.3571
2022-11-04T06:13:36.736Z,14.3571
2022-11-04T06:14:36.794Z,14.6429
2022-11-04T06:15:36.800Z,14.1429
2022-11-04T06:16:36.835Z,14.8571
2022-11-04T06:17:36.863Z,14.7143
2022-11-04T06:18:36.890Z,14.1429
2022-11-04T06:19:36.945Z,15.1429
2022-11-04T06:20:36.958Z,14.2143
2022-11-04T06:21:36.987Z,14
2022-11-04T06:22:37.017Z,14.2143
2022-11-04T06:23:37.053Z,14.8571
2022-11-04T06:24:37.097Z,14.4286
2022-11-04T06:25:37.131Z,14.6429
2022-11-04T06:26:37.183Z,14.3571
2022-11-04T06:27:37.186Z,13.9286
2022-11-04T06:28:37.228Z,14.9286
2022-11-04T06:29:37.261Z,15.5
2022-11-04T06:30:37.296Z,14.7143
2022-11-04T06:31:37.340Z,14.5
2022-11-04T06:32:37.366Z,14.7143
2022-11-04T06:33:37.414Z,15.2143
2022-11-04T06:34:37.429Z,14.7143
2022-11-04T06:35:37.468Z,14.7143
2022-11-04T06:36:37.509Z,14.6429
2022-11-04T06:37:37.535Z,14
2022-11-04T06:38:37.567Z,14.6429
2022-11-04T06:39:37.602Z,14.9286
2022-11-04T06:40:37.628Z,15.2143
2022-11-04T06:41:37.659Z,15.2143
2022-11-04T06:42:37.679Z,15.1429
2022-11-04T06:43:37.718Z,15.4286
2022-11-04T06:44:37.752Z,15
2022-11-04T06:45:37.788Z,15.4286
2022-11-04T06:46:37.821Z,15.5
2022-11-04T06:47:37.854Z,15.3571
2022-11-04T06:48:37.883Z,15.2143
2022-11-04T06:49:37.911Z,14.2143
2022-11-04T06:50:37.946Z,15.1429
2022-11-04T06:51:37.981Z,15
2022-11-04T06:52:42.134Z,15.1429
2022-11-04T06:53:38.040Z,14.7143
2022-11-04T06:54:38.073Z,14.3571
2022-11-04T06:55:38.107Z,14
2022-11-04T06:56:38.134Z,14.6429
2022-11-04T06:57:38.161Z,15.3571
2022-11-04T06:58:38.207Z,14.5
2022-11-04T06:59:38.228Z,14.1429
2022-11-04T07:00:38.270Z,14.5
2022-11-04T07:01:38.429Z,15.3571
2022-11-04T07:02:38.417Z,15.3571
2022-11-04T07:03:38.342Z,14.7143
2022-11-04T07:04:38.371Z,15.4286
2022-11-04T07:05:38.400Z,15.5
2022-11-04T07:06:41.185Z,14.9286
2022-11-04T07:07:38.464Z,15.3571
2022-11-04T07:08:38.485Z,14.4286
2022-11-04T07:09:38.519Z,14.4286
2022-11-04T07:10:38.545Z,14.7143
2022-11-04T07:11:38.576Z,14.2143
2022-11-04T07:12:38.609Z,14.4286
2022-11-04T07:13:38.642Z,14.9286
2022-11-04T07:14:38.671Z,15.1429
2022-11-04T07:15:38.704Z,14
2022-11-04T07:16:38.743Z,14.6429
2022-11-04T07:17:38.770Z,15.4286
2022-11-04T07:18:38.800Z,14.9286
2022-11-04T07:19:38.827Z,13.5
2022-11-04T07:20:38.856Z,14.3571
2022-11-04T07:21:38.889Z,15.1429
2022-11-04T07:22:38.925Z,14
2022-11-04T07:23:38.953Z,14.5
2022-11-04T07:24:38.985Z,14
2022-11-04T07:25:39.011Z,15.4286
2022-11-04T07:26:39.049Z,15.5
2022-11-04T07:27:39.079Z,15.8571
2022-11-04T07:28:39.112Z,14.7143
2022-11-04T07:29:39.140Z,15
2022-11-04T07:30:39.195Z,15.8571
2022-11-04T07:31:39.201Z,15.5
2022-11-04T07:32:39.226Z,13.6429
2022-11-04T07:33:39.255Z,14.1429
2022-11-04T07:34:39.286Z,14.4286
2022-11-04T07:35:39.323Z,14.7143
2022-11-04T07:36:39.357Z,13.9286
2022-11-04T07:37:39.379Z,13.8571
2022-11-04T07:38:39.416Z,14.3571
2022-11-04T07:39:39.437Z,13.8571
2022-11-04T07:40:39.485Z,13.9286
2022-11-04T07:41:39.503Z,13.8571
2022-11-04T07:42:39.527Z,13.2143
2022-11-04T07:43:39.559Z,15.1429
2022-11-04T07:44:39.585Z,14.2143
2022-11-04T07:45:39.617Z,13.2143
2022-11-04T07:46:39.649Z,13.2143
2022-11-04T07:47:39.684Z,13.4286
2022-11-04T07:48:39.748Z,13.2143
2022-11-04T07:49:39.763Z,13.6429
2022-11-04T07:50:39.770Z,13.6429
2022-11-04T07:51:39.802Z,13
2022-11-04T07:52:39.826Z,14.4286
2022-11-04T07:53:39.860Z,13.6429
2022-11-04T07:54:39.890Z,14.2143
2022-11-04T07:55:43.340Z,13.7143
2022-11-04T07:56:39.951Z,13.7143
2022-11-04T07:57:39.980Z,13.2143
2022-11-04T07:58:40.012Z,13.7143
2022-11-04T07:59:40.042Z,12.4286
2022-11-04T08:00:40.078Z,13.6429
2022-11-04T08:01:40.182Z,13.3571
2022-11-04T08:02:40.274Z,12.8571
2022-11-04T08:03:40.175Z,13.5
2022-11-04T08:04:40.206Z,13.2143
2022-11-04T08:05:40.239Z,13.6429
2022-11-04T08:06:40.288Z,13
2022-11-04T08:07:40.305Z,12.9286
2022-11-04T08:08:40.408Z,13.7143
2022-11-04T08:09:40.365Z,13
2022-11-04T08:10:40.399Z,13.2143
2022-11-04T08:11:40.435Z,13.1429
2022-11-04T08:12:40.464Z,13.5
2022-11-04T08:13:40.493Z,12.7143
2022-11-04T08:14:40.545Z,12.9286
2022-11-04T08:15:40.556Z,12.5
2022-11-04T08:16:40.580Z,12.4286
2022-11-04T08:17:40.624Z,13.1429
2022-11-04T08:18:40.669Z,13.8571
2022-11-04T08:19:40.684Z,12.4286
2022-11-04T08:20:40.708Z,13.3571
2022-11-04T08:21:40.750Z,12.1429
2022-11-04T08:22:40.770Z,12.9286
2022-11-04T08:23:40.800Z,12.5
2022-11-04T08:24:40.824Z,12
2022-11-04T08:25:40.863Z,11.6429
2022-11-04T08:26:40.895Z,12.9286
2022-11-04T08:27:40.926Z,13
2022-11-04T08:28:40.963Z,12.5
2022-11-04T08:29:41.002Z,12.4286
2022-11-04T08:30:41.037Z,11.9286
2022-11-04T08:31:41.066Z,12.4286
2022-11-04T08:32:41.106Z,11.9286
2022-11-04T08:33:41.145Z,12.4286
2022-11-04T08:34:41.167Z,11.4286
2022-11-04T08:35:41.335Z,11.7143
2022-11-04T08:36:41.227Z,12.7143
2022-11-04T08:37:41.266Z,11.9286
2022-11-04T08:38:41.310Z,12.9286
2022-11-04T08:39:41.335Z,12
2022-11-04T08:40:41.368Z,12
2022-11-04T08:41:41.395Z,11.7143
2022-11-04T08:42:41.429Z,11.4286
2022-11-04T08:43:41.462Z,11.9286
2022-11-04T08:44:41.495Z,11.4286
2022-11-04T08:45:41.517Z,11.9286
2022-11-04T08:46:41.554Z,14.9286
2022-11-04T08:47:41.581Z,10.6429
2022-11-04T08:48:41.602Z,10.6429
2022-11-04T08:49:41.634Z,10.8571
2022-11-04T08:50:41.657Z,10.9286
2022-11-04T08:51:41.693Z,10.5
2022-11-04T08:52:41.734Z,11.4286
2022-11-04T08:53:41.771Z,12.1429
2022-11-04T08:54:41.802Z,12.2143
2022-11-04T08:55:41.822Z,11.5
2022-11-04T08:56:41.846Z,11.4286
2022-11-04T08:57:41.873Z,10.7143
2022-11-04T08:58:41.912Z,11
2022-11-04T08:59:41.959Z,10.6429
2022-11-04T09:00:41.977Z,10.4286
2022-11-04T09:01:42.063Z,10.3571
2022-11-04T09:02:42.049Z,10.5
2022-11-04T09:03:42.129Z,10.7143
2022-11-04T09:04:42.102Z,10.7143
2022-11-04T09:05:42.143Z,10.5
2022-11-04T09:06:42.181Z,10.4286
2022-11-04T09:07:42.205Z,10.7143
2022-11-04T09:08:42.238Z,10.4286
2022-11-04T09:09:42.274Z,10.6429
2022-11-04T09:10:42.306Z,11.1429
2022-11-04T09:11:42.324Z,11.4286
2022-11-04T09:12:42.358Z,10.6429
2022-11-04T09:13:42.384Z,10.6429
2022-11-04T09:14:42.405Z,10.2143
2022-11-04T09:15:42.434Z,11
2022-11-04T09:16:42.510Z,10.5
2022-11-04T09:17:42.504Z,11.3571
2022-11-04T09:18:42.541Z,11
2022-11-04T09:19:42.561Z,10.6429
2022-11-04T09:20:42.583Z,11.2143
2022-11-04T09:21:42.625Z,9.71429
2022-11-04T09:22:45.714Z,12
2022-11-04T09:23:42.680Z,12.4286
2022-11-04T09:24:42.712Z,10.9286
2022-11-04T09:25:42.752Z,11
2022-11-04T09:26:42.792Z,11
2022-11-04T09:27:42.815Z,11
2022-11-04T09:28:42.850Z,9.71429
2022-11-04T09:29:42.888Z,10.9286
2022-11-04T09:30:42.912Z,10.2143
2022-11-04T09:31:42.943Z,10.2143
2022-11-04T09:32:42.976Z,10.5
2022-11-04T09:33:43.010Z,10.2143
2022-11-04T09:34:43.044Z,10.8571
2022-11-04T09:35:43.078Z,10.1429
2022-11-04T09:36:43.113Z,10.9286
2022-11-04T09:37:43.155Z,10.1429
2022-11-04T09:38:43.190Z,10.6429
2022-11-04T09:39:43.227Z,10.6429
2022-11-04T09:40:43.257Z,10.7143
2022-11-04T09:41:43.287Z,10.4286
2022-11-04T09:42:43.319Z,9.92857
2022-11-04T09:43:43.346Z,10.5
2022-11-04T09:45:06.856Z,10.3571
2022-11-04T09:45:43.412Z,9.92857
2022-11-04T09:46:43.429Z,10.6429
2022-11-04T09:47:43.471Z,10.5
2022-11-04T09:48:43.503Z,10.5
2022-11-04T09:49:43.536Z,9.71429
2022-11-04T09:50:43.569Z,9.35714
2022-11-04T09:51:54.911Z,9.92857
2022-11-04T09:52:43.648Z,9.5
2022-11-04T09:53:43.682Z,8.92857
2022-11-04T09:54:47.287Z,9.42857
2022-11-04T09:55:43.756Z,9.85714
2022-11-04T09:56:43.783Z,9.42857
2022-11-04T09:57:43.873Z,8.5
2022-11-04T09:58:43.848Z,9.64286
2022-11-04T09:59:43.877Z,9
2022-11-04T10:00:43.977Z,8.92857
2022-11-04T10:01:44.066Z,9
2022-11-04T10:02:43.975Z,8.92857
2022-11-04T10:03:44.011Z,8.92857
2022-11-04T10:04:44.039Z,8.71429
2022-11-04T10:05:44.073Z,8.42857
2022-11-04T10:06:44.109Z,8.64286
2022-11-04T10:07:44.133Z,8.5
2022-11-04T10:08:44.169Z,9.21429
2022-11-04T10:09:44.196Z,8.64286
2022-11-04T10:10:44.277Z,8.85714
2022-11-04T10:11:44.257Z,8.71429
2022-11-04T10:12:44.294Z,8.35714
2022-11-04T10:13:44.322Z,8.92857
2022-11-04T10:14:44.351Z,8.5
2022-11-04T10:15:44.383Z,8.21429
2022-11-04T10:16:44.435Z,8.42857
2022-11-04T10:17:44.448Z,8.21429
2022-11-04T10:18:44.483Z,8.35714
2022-11-04T10:19:44.516Z,7.85714
2022-11-04T10:20:44.541Z,9
2022-11-04T10:21:44.576Z,7.92857
2022-11-04T10:22:44.608Z,8.21429
2022-11-04T10:23:44.635Z,8.42857
2022-11-04T10:24:44.690Z,9
2022-11-04T10:25:44.692Z,8.35714
2022-11-04T10:26:44.729Z,8.5
2022-11-04T10:27:44.759Z,9.21429
2022-11-04T10:28:44.786Z,8.35714
2022-11-04T10:29:44.840Z,8.14286
2022-11-04T10:30:44.846Z,8
2022-11-04T10:31:44.879Z,8.14286
2022-11-04T10:32:44.916Z,7.85714
2022-11-04T10:33:44.947Z,8
2022-11-04T10:34:44.978Z,7.5
2022-11-04T10:35:45.006Z,7.92857
2022-11-04T10:36:45.041Z,7.85714
2022-11-04T10:37:45.057Z,7.85714
2022-11-04T10:38:45.094Z,7.71429
2022-11-04T10:39:45.132Z,8
2022-11-04T10:40:45.180Z,7.42857
2022-11-04T10:41:45.199Z,8
2022-11-04T10:42:45.235Z,8.14286
2022-11-04T10:43:45.264Z,8.14286
2022-11-04T10:44:45.294Z,7.42857
2022-11-04T10:45:45.329Z,7.85714
2022-11-04T10:46:45.364Z,7.5
2022-11-04T10:47:45.388Z,7.71429
2022-11-04T10:48:45.421Z,7.14286
2022-11-04T10:50:06.712Z,7.42857
2022-11-04T10:50:45.494Z,7.64286
2022-11-04T10:51:45.526Z,6.85714
2022-11-04T10:52:45.555Z,6.92857
2022-11-04T10:53:45.590Z,7.42857
2022-11-04T10:54:45.622Z,7.64286
2022-11-04T10:55:45.658Z,7.64286
2022-11-04T10:56:45.759Z,7.42857
2022-11-04T10:57:45.718Z,6.92857
2022-11-04T10:58:45.734Z,7.35714
2022-11-04T10:59:45.775Z,7
2022-11-04T11:00:45.860Z,7.21429
2022-11-04T11:01:45.938Z,7.5
2022-11-04T11:02:45.861Z,7.85714
2022-11-04T11:03:45.893Z,7.71429
2022-11-04T11:04:45.924Z,7.21429
2022-11-04T11:05:45.955Z,7.14286
2022-11-04T11:06:45.992Z,7.21429
2022-11-04T11:07:46.019Z,7.21429
2022-11-04T11:08:46.060Z,6.92857
2022-11-04T11:09:51.052Z,7.35714
2022-11-04T11:10:46.123Z,7.5
2022-11-04T11:11:46.153Z,7.92857
2022-11-04T11:12:51.212Z,7.85714
2022-11-04T11:13:46.224Z,7.5
2022-11-04T11:14:46.258Z,7.5
2022-11-04T11:15:46.289Z,7.71429
2022-11-04T11:16:46.325Z,7.14286
2022-11-04T11:17:46.361Z,7.42857
2022-11-04T11:18:46.396Z,7.21429
2022-11-04T11:19:46.430Z,8
2022-11-04T11:20:46.458Z,7.42857
2022-11-04T11:21:46.500Z,7.64286
2022-11-04T11:22:46.534Z,7.64286
2022-11-04T11:23:46.562Z,7.5
2022-11-04T11:24:46.584Z,7.64286
2022-11-04T11:25:46.619Z,7.85714
2022-11-04T11:26:46.656Z,7.64286
2022-11-04T11:27:46.681Z,7.64286
2022-11-04T11:28:46.720Z,7.85714
2022-11-04T11:29:46.748Z,7.71429
2022-11-04T11:30:46.796Z,7.92857
2022-11-04T11:31:46.817Z,7.35714
2022-11-04T11:32:46.847Z,7.71429
2022-11-04T11:33:46.902Z,8.21429
2022-11-04T11:34:46.921Z,7.21429
2022-11-04T11:35:46.959Z,7.71429
2022-11-04T11:36:47.003Z,7.5
2022-11-04T11:37:47.017Z,6.92857
2022-11-04T11:38:47.046Z,6.92857
2022-11-04T11:39:47.083Z,7.42857
2022-11-04T11:41:03.802Z,7
2022-11-04T11:41:51.939Z,7.35714
2022-11-04T11:42:47.168Z,7.14286
2022-11-04T11:43:47.205Z,7.5
2022-11-04T11:44:47.229Z,6.92857
2022-11-04T11:45:47.262Z,7.42857
2022-11-04T11:46:47.295Z,7.5
2022-11-04T11:47:47.321Z,7.21429
2022-11-04T11:48:47.353Z,6.71429
2022-11-04T11:49:47.388Z,6.64286
2022-11-04T11:50:47.420Z,7.21429
2022-11-04T11:51:47.479Z,7.14286
2022-11-04T11:52:47.489Z,7.42857
2022-11-04T11:53:47.518Z,6.42857
2022-11-04T11:54:47.555Z,7.14286
2022-11-04T11:55:47.582Z,7
2022-11-04T11:57:11.918Z,6.5
2022-11-04T12:00:49.192Z,7
2022-11-04T12:01:47.835Z,7.14286
2022-11-04T12:02:47.966Z,6.92857
2022-11-04T12:06:17.742Z,7
2022-11-04T12:09:16.304Z,7
2022-11-04T12:09:48.056Z,7.35714
2022-11-04T12:10:51.368Z,7.5
2022-11-04T12:11:48.125Z,7.21429
2022-11-04T12:12:48.153Z,7
2022-11-04T12:13:48.181Z,7.71429
2022-11-04T12:14:49.034Z,7.21429
2022-11-04T12:15:48.244Z,7
2022-11-04T12:16:48.277Z,7.14286
2022-11-04T12:17:48.319Z,7.21429
2022-11-04T12:18:48.351Z,7.21429
2022-11-04T12:19:48.386Z,7.35714
2022-11-04T12:20:48.421Z,7.71429
2022-11-04T12:21:48.463Z,7.5
2022-11-04T12:22:48.493Z,7.35714
2022-11-04T12:23:48.535Z,7.5
2022-11-04T12:24:48.560Z,7.14286
2022-11-04T12:25:48.584Z,8
2022-11-04T12:26:48.622Z,8
2022-11-04T12:27:48.644Z,7
2022-11-04T12:28:48.682Z,8.14286
2022-11-04T12:29:48.701Z,6.71429
2022-11-04T12:30:48.731Z,7.92857
2022-11-04T12:31:48.772Z,7.21429
2022-11-04T12:32:48.801Z,7.64286
2022-11-04T12:33:48.832Z,7.64286
2022-11-04T12:34:48.871Z,8
2022-11-04T12:35:48.909Z,7.71429